Gray Mountain, Arizona
Current Conditions -  °F | °C
As of 8:54 AM on Monday 24 Nov 2014 (Local Time) from KGCN Reporting Station
Clear Clear  
Wind Chill: -2°   Ceiling: Unl
Heat Index: -2°   Visibility: 10mi
Dew Point: -16°   Wind: 0mph
Humidity: 35%   Direction: NA
Pressure: 30.28"   Gusts: NA
Location:  35.75°N, 111.48°W
Report Text: KGCN 241554Z 00000KT 10SM CLR M02/M16 A3028 RMK AO2 SLP287 T10171156
Loading
Personal Weather Stations






























Interactive Weather Map New forecast layout! Learn more

10-Day Weather Forecast

Advertisements
Track Severe Weather on mobile